createdAt,value
2023-02-01T00:00:04.384Z,1.97
2023-02-01T00:01:04.108Z,1.97
2023-02-01T00:02:04.125Z,1.95
2023-02-01T00:03:04.172Z,1.97
2023-02-01T00:04:04.097Z,1.97
2023-02-01T00:05:04.068Z,1.97
2023-02-01T00:06:04.063Z,1.95
2023-02-01T00:07:04.044Z,1.95
2023-02-01T00:08:04.081Z,1.95
2023-02-01T00:09:04.039Z,1.95
2023-02-01T00:10:04.032Z,1.95
2023-02-01T00:11:04.011Z,1.95
2023-02-01T00:12:04.016Z,1.93
2023-02-01T00:13:03.984Z,1.93
2023-02-01T00:14:03.982Z,1.97
2023-02-01T00:15:03.969Z,1.97
2023-02-01T00:16:04.159Z,1.97
2023-02-01T00:17:03.982Z,2.00
2023-02-01T00:18:03.952Z,2.00
2023-02-01T00:19:03.964Z,1.99
2023-02-01T00:20:03.962Z,1.97
2023-02-01T00:21:03.924Z,1.97
2023-02-01T00:22:04.860Z,1.99
2023-02-01T00:23:04.856Z,1.97
2023-02-01T00:24:03.932Z,1.95
2023-02-01T00:25:03.866Z,1.97
2023-02-01T00:26:03.861Z,1.93
2023-02-01T00:27:03.851Z,2.00
2023-02-01T00:28:03.855Z,2.00
2023-02-01T00:29:03.878Z,2.03
2023-02-01T00:30:03.852Z,2.01
2023-02-01T00:31:03.934Z,2.03
2023-02-01T00:32:03.882Z,2.06
2023-02-01T00:33:03.899Z,2.10
2023-02-01T00:34:03.783Z,2.11
2023-02-01T00:35:03.762Z,2.10
2023-02-01T00:36:03.777Z,2.12
2023-02-01T00:37:03.738Z,2.11
2023-02-01T00:38:03.734Z,2.12
2023-02-01T00:39:03.739Z,2.07
2023-02-01T00:40:03.758Z,2.12
2023-02-01T00:41:03.774Z,2.11
2023-02-01T00:42:03.715Z,2.12
2023-02-01T00:43:03.716Z,2.12
2023-02-01T00:44:03.710Z,2.12
2023-02-01T00:45:03.740Z,2.11
2023-02-01T00:46:03.688Z,2.10
2023-02-01T00:47:03.671Z,2.06
2023-02-01T00:48:03.639Z,2.07
2023-02-01T00:49:03.618Z,2.10
2023-02-01T00:50:03.608Z,2.10
2023-02-01T00:51:03.629Z,2.07
2023-02-01T00:52:03.614Z,2.04
2023-02-01T00:53:03.574Z,2.01
2023-02-01T00:54:03.616Z,2.04
2023-02-01T00:55:03.564Z,2.07
2023-02-01T00:56:03.599Z,2.06
2023-02-01T00:57:03.535Z,2.06
2023-02-01T00:58:03.523Z,2.06
2023-02-01T00:59:03.531Z,2.04
2023-02-01T01:00:03.549Z,2.04
2023-02-01T01:01:03.544Z,2.03
2023-02-01T01:02:03.581Z,2.01
2023-02-01T01:03:03.480Z,2.04
2023-02-01T01:04:03.466Z,2.03
2023-02-01T01:05:03.506Z,2.01
2023-02-01T01:06:03.447Z,2.00
2023-02-01T01:07:03.467Z,1.99
2023-02-01T01:08:03.416Z,1.99
2023-02-01T01:09:03.409Z,1.95
2023-02-01T01:10:03.451Z,1.97
2023-02-01T01:11:03.419Z,1.99
2023-02-01T01:12:03.414Z,1.95
2023-02-01T01:13:03.370Z,1.92
2023-02-01T01:14:03.870Z,1.95
2023-02-01T01:15:03.385Z,2.00
2023-02-01T01:16:03.384Z,1.99
2023-02-01T01:17:03.368Z,1.95
2023-02-01T01:18:03.351Z,1.93
2023-02-01T01:19:03.316Z,1.89
2023-02-01T01:20:03.315Z,1.87
2023-02-01T01:21:03.327Z,1.87
2023-02-01T01:22:03.308Z,1.85
2023-02-01T01:23:03.327Z,1.82
2023-02-01T01:24:03.271Z,1.82
2023-02-01T01:25:03.295Z,1.84
2023-02-01T01:26:03.233Z,1.77
2023-02-01T01:27:03.241Z,1.75
2023-02-01T01:28:03.239Z,1.73
2023-02-01T01:29:03.215Z,1.69
2023-02-01T01:30:03.272Z,1.69
2023-02-01T01:31:03.295Z,1.67
2023-02-01T01:32:03.225Z,1.71
2023-02-01T01:33:03.209Z,1.71
2023-02-01T01:34:03.163Z,1.73
2023-02-01T01:35:03.151Z,1.67
2023-02-01T01:36:03.165Z,1.73
2023-02-01T01:37:03.185Z,1.73
2023-02-01T01:38:03.123Z,1.73
2023-02-01T01:39:03.106Z,1.67
2023-02-01T01:40:03.127Z,1.67
2023-02-01T01:41:03.138Z,1.62
2023-02-01T01:42:03.145Z,1.62
2023-02-01T01:43:03.067Z,1.62
2023-02-01T01:44:03.160Z,1.60
2023-02-01T01:45:03.056Z,1.62
2023-02-01T01:46:03.070Z,1.66
2023-02-01T01:47:03.093Z,1.67
2023-02-01T01:48:03.028Z,1.64
2023-02-01T01:49:03.160Z,1.63
2023-02-01T01:50:02.987Z,1.59
2023-02-01T01:51:03.040Z,1.57
2023-02-01T01:52:02.985Z,1.67
2023-02-01T01:53:02.975Z,1.69
2023-02-01T01:54:02.982Z,1.74
2023-02-01T01:55:02.941Z,1.74
2023-02-01T01:56:02.927Z,1.77
2023-02-01T01:57:03.437Z,1.78
2023-02-01T01:58:02.906Z,1.80
2023-02-01T01:59:02.928Z,1.80
2023-02-01T02:00:02.942Z,1.84
2023-02-01T02:01:02.888Z,1.84
2023-02-01T02:02:02.973Z,1.87
2023-02-01T02:03:02.868Z,1.85
2023-02-01T02:04:02.908Z,1.89
2023-02-01T03:18:39.058Z,1.63
2023-02-01T03:19:32.958Z,1.60
2023-02-01T03:20:32.950Z,1.62
2023-02-01T03:21:32.935Z,1.60
2023-02-01T03:22:32.956Z,1.60
2023-02-01T03:23:32.909Z,1.64
2023-02-01T03:24:32.923Z,1.63
2023-02-01T03:25:32.886Z,1.62
2023-02-01T03:26:32.916Z,1.64
2023-02-01T03:27:32.869Z,1.64
2023-02-01T03:28:32.850Z,1.64
2023-02-01T03:29:32.843Z,1.64
2023-02-01T03:30:32.943Z,1.63
2023-02-01T03:31:32.834Z,1.63
2023-02-01T03:32:32.804Z,1.62
2023-02-01T03:33:32.820Z,1.62
2023-02-01T03:34:32.815Z,1.60
2023-02-01T03:35:32.819Z,1.60
2023-02-01T03:36:32.775Z,1.62
2023-02-01T03:37:32.774Z,1.60
2023-02-01T03:38:32.758Z,1.62
2023-02-01T03:39:32.739Z,1.62
2023-02-01T03:40:32.807Z,1.62
2023-02-01T03:41:32.730Z,1.62
2023-02-01T03:42:32.712Z,1.64
2023-02-01T03:43:32.723Z,1.63
2023-02-01T03:44:32.697Z,1.69
2023-02-01T03:45:32.775Z,1.69
2023-02-01T03:46:32.704Z,1.67
2023-02-01T03:47:32.652Z,1.69
2023-02-01T03:48:32.679Z,1.69
2023-02-01T03:49:32.658Z,1.69
2023-02-01T03:50:32.644Z,1.71
2023-02-01T03:51:32.623Z,1.73
2023-02-01T03:52:32.633Z,1.73
2023-02-01T03:53:32.615Z,1.74
2023-02-01T03:54:32.605Z,1.74
2023-02-01T03:55:32.879Z,1.77
2023-02-01T03:56:32.563Z,1.77
2023-02-01T03:57:32.631Z,1.77
2023-02-01T03:58:32.543Z,1.77
2023-02-01T03:59:32.535Z,1.78
2023-02-01T04:00:32.547Z,1.78
2023-02-01T04:01:32.596Z,1.82
2023-02-01T04:02:32.504Z,1.82
2023-02-01T04:03:32.505Z,1.81
2023-02-01T04:04:32.484Z,1.80
2023-02-01T04:05:32.571Z,1.78
2023-02-01T04:06:32.479Z,1.80
2023-02-01T04:07:32.444Z,1.81
2023-02-01T04:08:32.436Z,1.80
2023-02-01T04:09:32.422Z,1.82
2023-02-01T04:10:32.425Z,1.82
2023-02-01T04:11:32.432Z,1.81
2023-02-01T04:12:32.398Z,1.80
2023-02-01T04:13:32.392Z,1.82
2023-02-01T04:14:32.380Z,1.82
2023-02-01T04:15:32.386Z,1.85
2023-02-01T04:16:32.473Z,1.85
2023-02-01T04:17:32.392Z,1.85
2023-02-01T04:18:32.335Z,1.85
2023-02-01T04:19:32.409Z,1.87
2023-02-01T04:20:32.322Z,1.89
2023-02-01T04:21:32.309Z,1.87
2023-02-01T04:22:32.306Z,1.87
2023-02-01T04:23:32.377Z,1.85
2023-02-01T04:24:32.280Z,1.85
2023-02-01T04:25:32.260Z,1.87
2023-02-01T04:26:32.282Z,1.82
2023-02-01T04:27:32.241Z,1.82
2023-02-01T04:28:32.219Z,1.82
2023-02-01T04:29:32.255Z,1.78
2023-02-01T04:30:32.301Z,1.81
2023-02-01T04:31:32.330Z,1.78
2023-02-01T04:32:32.192Z,1.78
2023-02-01T04:33:32.262Z,1.80
2023-02-01T04:34:32.224Z,1.78
2023-02-01T04:35:32.216Z,1.80
2023-02-01T04:36:32.158Z,1.81
2023-02-01T04:37:32.153Z,1.81
2023-02-01T04:38:32.158Z,1.80
2023-02-01T04:39:32.123Z,1.80
2023-02-01T04:40:32.155Z,1.81
2023-02-01T04:41:32.103Z,1.82
2023-02-01T04:42:32.075Z,1.80
2023-02-01T04:43:32.077Z,1.80
2023-02-01T04:44:32.112Z,1.81
2023-02-01T04:45:32.041Z,1.82
2023-02-01T04:46:32.193Z,1.84
2023-02-01T04:47:32.023Z,1.84
2023-02-01T04:48:32.022Z,1.85
2023-02-01T04:49:32.068Z,1.85
2023-02-01T04:50:31.998Z,1.87
2023-02-01T04:51:32.018Z,1.91
2023-02-01T04:52:31.991Z,1.92
2023-02-01T04:53:32.019Z,1.92
2023-02-01T04:54:31.970Z,1.93
2023-02-01T04:55:31.940Z,1.92
2023-02-01T04:56:31.964Z,1.93
2023-02-01T04:57:31.942Z,1.92
2023-02-01T04:58:31.921Z,1.92
2023-02-01T04:59:31.915Z,1.92
2023-02-01T05:00:31.888Z,1.91
2023-02-01T05:01:31.943Z,1.92
2023-02-01T05:02:31.885Z,1.91
2023-02-01T05:03:31.853Z,1.92
2023-02-01T05:04:31.975Z,1.89
2023-02-01T05:05:31.860Z,1.91
2023-02-01T05:06:31.840Z,1.93
2023-02-01T05:07:31.863Z,1.93
2023-02-01T05:08:31.840Z,1.95
2023-02-01T05:09:31.800Z,1.95
2023-02-01T05:10:31.829Z,1.97
2023-02-01T05:11:31.775Z,1.97
2023-02-01T05:12:31.776Z,1.99
2023-02-01T05:13:31.789Z,1.97
2023-02-01T05:14:31.766Z,1.95
2023-02-01T05:15:31.779Z,1.95
2023-02-01T05:16:36.391Z,1.93
2023-02-01T05:17:31.794Z,1.93
2023-02-01T05:18:31.755Z,1.92
2023-02-01T05:19:31.686Z,1.92
2023-02-01T05:20:31.682Z,1.89
2023-02-01T05:21:31.752Z,1.85
2023-02-01T05:22:31.681Z,1.82
2023-02-01T05:23:31.650Z,1.80
2023-02-01T05:24:31.638Z,1.78
2023-02-01T05:25:31.659Z,1.73
2023-02-01T05:26:31.700Z,1.69
2023-02-01T05:27:31.617Z,1.67
2023-02-01T05:28:31.625Z,1.69
2023-02-01T05:29:31.644Z,1.71
2023-02-01T05:30:31.656Z,1.71
2023-02-01T05:31:31.689Z,1.71
2023-02-01T05:32:31.744Z,1.73
2023-02-01T05:33:31.539Z,1.71
2023-02-01T05:34:31.542Z,1.66
2023-02-01T05:35:31.528Z,1.66
2023-02-01T05:36:31.538Z,1.63
2023-02-01T05:37:31.514Z,1.62
2023-02-01T05:38:31.550Z,1.62
2023-02-01T05:39:31.489Z,1.62
2023-02-01T05:40:31.481Z,1.62
2023-02-01T05:41:31.464Z,1.63
2023-02-01T05:42:31.481Z,1.57
2023-02-01T05:43:31.513Z,1.56
2023-02-01T05:44:31.439Z,1.55
2023-02-01T05:45:31.429Z,1.53
2023-02-01T05:46:31.475Z,1.55
2023-02-01T05:47:31.401Z,1.59
2023-02-01T05:48:31.453Z,1.62
2023-02-01T05:49:31.463Z,1.63
2023-02-01T05:50:31.371Z,1.64
2023-02-01T05:51:31.367Z,1.66
2023-02-01T05:52:31.349Z,1.71
2023-02-01T05:53:31.330Z,1.67
2023-02-01T05:54:31.334Z,1.67
2023-02-01T05:55:31.337Z,1.69
2023-02-01T05:56:31.315Z,1.74
2023-02-01T05:57:31.297Z,1.71
2023-02-01T05:58:31.332Z,1.69
2023-02-01T05:59:31.412Z,1.71
2023-02-01T06:00:31.271Z,1.73
2023-02-01T06:01:31.248Z,1.73
2023-02-01T06:02:31.267Z,1.77
2023-02-01T06:03:31.270Z,1.77
2023-02-01T06:04:31.239Z,1.75
2023-02-01T06:05:31.253Z,1.74
2023-02-01T06:06:31.204Z,1.74
2023-02-01T06:07:31.189Z,1.71
2023-02-01T06:08:31.179Z,1.73
2023-02-01T06:09:31.190Z,1.75
2023-02-01T06:10:31.165Z,1.78
2023-02-01T06:11:32.675Z,1.77
2023-02-01T06:12:31.176Z,1.80
2023-02-01T06:13:33.352Z,1.75
2023-02-01T06:14:31.141Z,1.73
2023-02-01T06:15:31.107Z,1.71
2023-02-01T06:16:31.101Z,1.75
2023-02-01T06:17:31.101Z,1.74
2023-02-01T06:18:31.420Z,1.74
2023-02-01T06:19:31.060Z,1.71
2023-02-01T06:20:31.072Z,1.74
2023-02-01T06:21:31.059Z,1.75
2023-02-01T06:22:31.045Z,1.77
2023-02-01T06:23:31.049Z,1.77
2023-02-01T06:24:31.133Z,1.77
2023-02-01T06:25:31.022Z,1.84
2023-02-01T06:26:31.045Z,1.89
2023-02-01T06:27:30.990Z,1.92
2023-02-01T06:28:30.973Z,1.92
2023-02-01T06:29:30.977Z,1.97
2023-02-01T06:30:30.958Z,1.99
2023-02-01T06:31:31.026Z,2.00
2023-02-01T06:32:30.932Z,2.00
2023-02-01T06:33:31.036Z,2.00
2023-02-01T06:34:30.913Z,2.00
2023-02-01T06:35:30.889Z,1.99
2023-02-01T06:36:30.897Z,1.99
2023-02-01T06:37:30.879Z,1.97
2023-02-01T06:38:30.890Z,1.95
2023-02-01T06:39:31.385Z,1.93
2023-02-01T06:40:30.857Z,1.95
2023-02-01T06:41:30.872Z,1.93
2023-02-01T06:42:30.830Z,1.95
2023-02-01T06:43:30.852Z,1.95
2023-02-01T06:44:30.821Z,1.93
2023-02-01T06:45:30.825Z,1.93
2023-02-01T06:46:30.848Z,1.93
2023-02-01T06:47:30.761Z,1.93
2023-02-01T06:48:30.798Z,1.92
2023-02-01T06:49:30.774Z,1.92
2023-02-01T06:50:30.814Z,1.92
2023-02-01T06:51:30.783Z,1.91
2023-02-01T06:52:30.726Z,1.91
2023-02-01T06:53:30.778Z,1.89
2023-02-01T06:54:30.714Z,1.92
2023-02-01T06:55:30.732Z,1.91
2023-02-01T06:56:30.686Z,1.92
2023-02-01T06:57:30.666Z,1.89
2023-02-01T06:58:30.732Z,1.87
2023-02-01T06:59:30.645Z,1.87
2023-02-01T07:00:30.748Z,1.85
2023-02-01T07:01:30.656Z,1.85
2023-02-01T07:02:30.645Z,1.85
2023-02-01T07:03:30.600Z,1.91
2023-02-01T07:04:30.599Z,1.89
2023-02-01T07:05:30.611Z,1.84
2023-02-01T07:06:30.580Z,1.87
2023-02-01T07:07:30.608Z,1.91
2023-02-01T07:08:30.547Z,1.91
2023-02-01T07:09:30.535Z,1.91
2023-02-01T07:10:30.541Z,1.91
2023-02-01T07:11:30.547Z,1.89
2023-02-01T07:12:30.560Z,1.92
2023-02-01T07:13:30.498Z,1.92
2023-02-01T07:14:30.484Z,1.92
2023-02-01T07:15:30.473Z,1.91
2023-02-01T07:16:30.537Z,1.92
2023-02-01T07:17:30.601Z,1.92
2023-02-01T07:18:30.473Z,1.91
2023-02-01T07:19:30.445Z,1.92
2023-02-01T07:20:30.433Z,1.91
2023-02-01T07:21:30.447Z,1.92
2023-02-01T07:22:30.419Z,1.91
2023-02-01T07:23:30.919Z,1.91
2023-02-01T07:24:30.410Z,1.91
2023-02-01T07:25:30.386Z,1.91
2023-02-01T07:26:30.446Z,1.91
2023-02-01T07:27:30.392Z,1.92
2023-02-01T07:28:30.394Z,1.92
2023-02-01T07:29:30.329Z,1.92
2023-02-01T07:30:30.350Z,1.93
2023-02-01T07:31:30.371Z,1.93
2023-02-01T07:32:30.356Z,1.97
2023-02-01T07:33:30.334Z,1.97
2023-02-01T07:34:30.300Z,2.00
2023-02-01T07:35:30.277Z,2.01
2023-02-01T07:36:30.266Z,2.00
2023-02-01T07:37:30.255Z,2.00
2023-02-01T07:38:30.263Z,2.01
2023-02-01T07:39:30.259Z,2.04
2023-02-01T07:40:30.217Z,2.06
2023-02-01T07:41:30.200Z,2.10
2023-02-01T07:42:30.196Z,2.12
2023-02-01T07:43:30.187Z,2.14
2023-02-01T07:44:30.217Z,2.19
2023-02-01T07:45:30.252Z,2.22
2023-02-01T07:46:30.230Z,2.24
2023-02-01T07:47:30.177Z,2.25
2023-02-01T07:48:30.161Z,2.28
2023-02-01T07:49:30.141Z,2.25
2023-02-01T07:50:30.164Z,2.25
2023-02-01T07:51:30.111Z,2.24
2023-02-01T07:52:30.112Z,2.24
2023-02-01T07:53:30.079Z,2.22
2023-02-01T07:54:30.070Z,2.24
2023-02-01T07:55:30.211Z,2.21
2023-02-01T07:56:30.054Z,2.28
2023-02-01T07:57:30.047Z,2.25
2023-02-01T07:58:30.105Z,2.25
2023-02-01T07:59:30.050Z,2.28
2023-02-01T08:00:30.012Z,2.24
2023-02-01T08:01:30.015Z,2.28
2023-02-01T08:02:30.057Z,2.32
2023-02-01T08:03:30.005Z,2.30
2023-02-01T08:04:30.560Z,2.30
2023-02-01T08:05:29.960Z,2.32
2023-02-01T08:06:29.978Z,2.33
2023-02-01T08:07:29.968Z,2.33
2023-02-01T08:08:29.935Z,2.35
2023-02-01T08:09:30.900Z,2.35
2023-02-01T08:10:29.949Z,2.37
2023-02-01T08:11:29.913Z,2.35
2023-02-01T08:12:29.910Z,2.37
2023-02-01T08:13:29.866Z,2.40
2023-02-01T08:14:29.890Z,2.43
2023-02-01T08:15:29.871Z,2.42
2023-02-01T08:16:29.972Z,2.48
2023-02-01T08:17:30.462Z,2.50
2023-02-01T08:18:29.861Z,2.50
2023-02-01T08:19:37.318Z,2.53
2023-02-01T08:20:29.809Z,2.57
2023-02-01T08:21:29.806Z,2.57
2023-02-01T08:22:29.811Z,2.57
2023-02-01T08:23:29.767Z,2.63
2023-02-01T08:24:29.796Z,2.63
2023-02-01T08:25:30.451Z,2.61
2023-02-01T08:26:29.748Z,2.68
2023-02-01T08:27:29.719Z,2.69
2023-02-01T08:28:29.745Z,2.72
2023-02-01T08:29:29.754Z,2.75
2023-02-01T08:30:29.697Z,2.78
2023-02-01T08:31:29.768Z,2.84
2023-02-01T08:32:29.676Z,2.84
2023-02-01T08:33:29.657Z,2.84
2023-02-01T08:34:29.662Z,2.69
2023-02-01T08:35:42.273Z,2.71
2023-02-01T08:36:30.665Z,2.76
2023-02-01T08:37:29.657Z,2.81
2023-02-01T08:38:29.695Z,2.81
2023-02-01T08:39:29.622Z,2.76
2023-02-01T08:40:29.590Z,2.78
2023-02-01T08:41:29.586Z,2.81
2023-02-01T08:42:29.611Z,2.79
2023-02-01T08:43:29.592Z,2.89
2023-02-01T08:44:29.953Z,2.86
2023-02-01T08:45:29.577Z,2.93
2023-02-01T08:46:34.463Z,2.89
2023-02-01T08:47:29.507Z,2.89
2023-02-01T08:48:29.506Z,2.86
2023-02-01T08:49:29.494Z,2.90
2023-02-01T08:50:29.489Z,2.86
2023-02-01T08:51:29.503Z,2.89
2023-02-01T08:52:29.508Z,2.82
2023-02-01T08:53:29.452Z,2.96
2023-02-01T08:54:29.510Z,2.94
2023-02-01T08:55:29.494Z,2.94
2023-02-01T08:56:29.456Z,3.02
2023-02-01T08:57:29.406Z,2.90
2023-02-01T08:58:29.394Z,2.97
2023-02-01T08:59:30.457Z,2.99
2023-02-01T09:00:29.402Z,2.97
2023-02-01T09:01:29.395Z,3.07
2023-02-01T09:02:29.357Z,3.05
2023-02-01T09:03:29.383Z,2.99
2023-02-01T09:04:29.334Z,2.93
2023-02-01T09:05:40.686Z,2.91
2023-02-01T09:06:30.342Z,3.00
2023-02-01T09:07:29.402Z,2.93
2023-02-01T09:08:29.294Z,2.97
2023-02-01T09:09:29.314Z,3.07
2023-02-01T09:10:35.133Z,3.00
2023-02-01T09:11:30.278Z,3.05
2023-02-01T09:12:29.254Z,3.09
2023-02-01T09:13:29.246Z,3.15
2023-02-01T09:14:29.221Z,3.23
2023-02-01T09:15:29.318Z,3.30
2023-02-01T09:16:29.219Z,3.15
2023-02-01T09:18:29.231Z,3.17
2023-02-01T09:19:29.175Z,3.22
2023-02-01T09:20:29.192Z,3.15
2023-02-01T09:21:29.235Z,3.15
2023-02-01T09:22:29.151Z,3.23
2023-02-01T09:23:29.131Z,3.25
2023-02-01T09:24:29.125Z,3.09
2023-02-01T09:25:29.141Z,3.12
2023-02-01T09:26:32.973Z,3.22
2023-02-01T09:27:29.084Z,3.22
2023-02-01T09:28:29.096Z,3.30
2023-02-01T09:29:29.075Z,3.23
2023-02-01T09:30:30.524Z,3.15
2023-02-01T09:31:29.287Z,3.11
2023-02-01T09:32:29.189Z,3.15
2023-02-01T09:33:29.027Z,3.17
2023-02-01T09:34:29.044Z,3.08
2023-02-01T09:35:29.011Z,3.11
2023-02-01T09:36:31.158Z,3.26
2023-02-01T09:37:28.984Z,3.22
2023-02-01T09:38:29.009Z,3.36
2023-02-01T09:39:28.962Z,3.42
2023-02-01T09:40:28.975Z,3.48
2023-02-01T09:41:28.988Z,3.35
2023-02-01T09:42:30.339Z,3.52
2023-02-01T09:43:28.929Z,3.60
2023-02-01T09:44:35.662Z,3.63
2023-02-01T09:45:29.898Z,3.70
2023-02-01T09:46:28.898Z,3.60
2023-02-01T09:47:28.877Z,3.59
2023-02-01T09:48:30.185Z,3.60
2023-02-01T09:49:28.898Z,3.54
2023-02-01T09:50:28.857Z,3.36
2023-02-01T09:51:28.856Z,3.44
2023-02-01T09:52:28.828Z,3.49
2023-02-01T09:53:28.834Z,3.70
2023-02-01T09:54:30.607Z,3.66
2023-02-01T09:55:28.809Z,3.72
2023-02-01T09:56:28.810Z,3.99
2023-02-01T09:57:28.769Z,3.98
2023-02-01T09:58:28.781Z,3.99
2023-02-01T09:59:28.969Z,3.92
2023-02-01T10:00:28.747Z,3.94
2023-02-01T10:01:28.824Z,3.90
2023-02-01T10:02:28.726Z,4.16
2023-02-01T10:03:28.787Z,4.06
2023-02-01T10:04:28.725Z,4.00
2023-02-01T10:05:28.688Z,4.09
2023-02-01T10:06:31.100Z,4.13
2023-02-01T10:07:28.678Z,4.08
2023-02-01T10:08:28.667Z,3.88
2023-02-01T10:09:29.453Z,3.98
2023-02-01T10:10:28.643Z,4.09
2023-02-01T10:11:28.667Z,4.02
2023-02-01T10:12:30.200Z,4.24
2023-02-01T10:13:28.617Z,4.13
2023-02-01T10:14:28.659Z,4.17
2023-02-01T10:15:28.627Z,4.17
2023-02-01T10:16:28.709Z,4.35
2023-02-01T10:17:33.442Z,4.41
2023-02-01T10:18:28.585Z,4.42
2023-02-01T10:19:28.574Z,4.35
2023-02-01T10:20:29.438Z,4.34
2023-02-01T10:21:28.530Z,4.34
2023-02-01T10:22:48.326Z,4.30
2023-02-01T10:23:34.411Z,4.78
2023-02-01T10:24:30.325Z,4.69
2023-02-01T10:25:28.554Z,4.56
2023-02-01T10:26:28.573Z,4.26
2023-02-01T10:27:28.460Z,4.16
2023-02-01T10:28:28.456Z,4.02
2023-02-01T10:29:28.459Z,4.17
2023-02-01T10:30:31.426Z,4.36
2023-02-01T10:31:28.554Z,4.31
2023-02-01T10:32:28.419Z,4.23
2023-02-01T10:33:28.400Z,4.10
2023-02-01T10:34:28.413Z,4.17
2023-02-01T10:35:28.386Z,4.34
2023-02-01T10:36:30.304Z,4.18
2023-02-01T10:37:28.354Z,4.60
2023-02-01T10:38:28.331Z,4.96
2023-02-01T10:39:28.385Z,4.72
2023-02-01T10:40:28.329Z,4.64
2023-02-01T10:41:28.303Z,4.61
2023-02-01T10:42:28.317Z,4.43
2023-02-01T10:43:28.291Z,4.82
2023-02-01T10:44:28.272Z,5.11
2023-02-01T10:45:28.297Z,4.91
2023-02-01T10:46:28.360Z,4.77
2023-02-01T10:47:28.271Z,4.69
2023-02-01T10:48:30.286Z,4.59
2023-02-01T10:49:28.223Z,4.61
2023-02-01T10:50:28.230Z,4.77
2023-02-01T10:51:28.197Z,4.75
2023-02-01T10:52:28.204Z,4.53
2023-02-01T10:53:28.199Z,4.51
2023-02-01T10:54:30.127Z,4.48
2023-02-01T10:55:28.166Z,4.57
2023-02-01T10:56:28.154Z,4.60
2023-02-01T10:57:28.133Z,4.63
2023-02-01T10:58:28.124Z,4.77
2023-02-01T10:59:28.130Z,4.82
2023-02-01T11:00:28.111Z,4.89
2023-02-01T11:01:28.157Z,4.96
2023-02-01T11:02:28.225Z,5.09
2023-02-01T11:03:28.081Z,4.93
2023-02-01T11:04:28.096Z,4.60
2023-02-01T11:05:28.143Z,4.53
2023-02-01T11:06:28.088Z,4.86
2023-02-01T11:07:28.065Z,4.59
2023-02-01T11:08:28.016Z,4.91
2023-02-01T11:09:28.011Z,5.00
2023-02-01T11:10:27.990Z,4.94
2023-02-01T11:11:28.002Z,4.98
2023-02-01T11:12:28.015Z,4.72
2023-02-01T11:13:27.971Z,4.82
2023-02-01T11:14:28.018Z,4.88
2023-02-01T11:15:27.935Z,5.03
2023-02-01T11:16:27.949Z,5.07
2023-02-01T11:17:27.933Z,5.16
2023-02-01T11:18:27.929Z,4.78
2023-02-01T11:19:27.898Z,4.82
2023-02-01T11:20:28.000Z,4.96
2023-02-01T11:21:27.902Z,4.83
2023-02-01T11:22:27.886Z,4.63
2023-02-01T11:23:27.867Z,4.67
2023-02-01T11:24:27.847Z,4.63
2023-02-01T11:25:27.832Z,4.64
2023-02-01T11:26:27.958Z,4.27
2023-02-01T11:27:28.269Z,4.24
2023-02-01T11:28:27.803Z,4.38
2023-02-01T11:29:27.809Z,4.77
2023-02-01T11:30:28.973Z,4.85
2023-02-01T11:31:27.873Z,4.85
2023-02-01T11:32:27.774Z,4.85
2023-02-01T11:33:27.742Z,5.01
2023-02-01T11:34:27.761Z,5.22
2023-02-01T11:35:27.730Z,5.27
2023-02-01T11:36:27.720Z,5.30
2023-02-01T11:37:27.749Z,5.54
2023-02-01T11:38:27.708Z,5.62
2023-02-01T11:39:27.697Z,5.70
2023-02-01T11:40:27.681Z,6.34
2023-02-01T11:41:27.753Z,7.04
2023-02-01T11:42:27.647Z,7.06
2023-02-01T11:43:27.640Z,7.04
2023-02-01T11:44:27.649Z,6.45
2023-02-01T11:45:27.630Z,6.56
2023-02-01T11:46:27.703Z,6.83
2023-02-01T11:47:28.501Z,6.40
2023-02-01T11:48:27.679Z,6.75
2023-02-01T11:49:27.584Z,6.47
2023-02-01T11:50:27.583Z,6.13
2023-02-01T11:51:27.688Z,6.09
2023-02-01T11:52:27.603Z,5.88
2023-02-01T11:53:27.535Z,5.95
2023-02-01T11:54:27.541Z,5.34
2023-02-01T11:55:27.508Z,5.54
2023-02-01T11:56:27.501Z,5.34
2023-02-01T11:57:27.521Z,5.66
2023-02-01T11:58:27.483Z,5.59
2023-02-01T11:59:27.997Z,5.22
2023-02-01T12:00:27.469Z,5.47
2023-02-01T12:01:27.458Z,5.80
2023-02-01T12:02:27.466Z,5.93
2023-02-01T12:03:27.483Z,5.50
2023-02-01T12:04:27.434Z,5.66
2023-02-01T12:05:27.397Z,5.52
2023-02-01T12:06:27.465Z,5.57
2023-02-01T12:07:27.382Z,5.36
2023-02-01T12:08:27.380Z,5.41
2023-02-01T12:09:27.363Z,5.00
2023-02-01T12:10:27.354Z,5.18
2023-02-01T12:11:27.352Z,5.16
2023-02-01T12:12:27.365Z,4.74
2023-02-01T12:13:27.310Z,4.83
2023-02-01T12:14:27.962Z,4.86
2023-02-01T12:15:27.295Z,4.63
2023-02-01T12:16:27.430Z,4.74
2023-02-01T12:17:27.268Z,4.85
2023-02-01T12:18:27.322Z,4.67
2023-02-01T12:19:27.255Z,4.57
2023-02-01T12:20:27.652Z,4.46
2023-02-01T12:21:27.243Z,4.56
2023-02-01T12:22:27.244Z,4.67
2023-02-01T12:23:27.232Z,4.56
2023-02-01T12:24:27.210Z,4.54
2023-02-01T12:25:27.229Z,4.74
2023-02-01T12:26:27.264Z,4.91
2023-02-01T12:27:27.167Z,4.86
2023-02-01T12:28:27.157Z,4.82
2023-02-01T12:29:27.153Z,4.54
2023-02-01T12:30:27.162Z,4.56
2023-02-01T12:31:27.219Z,4.59
2023-02-01T12:32:27.118Z,4.43
2023-02-01T12:33:27.121Z,4.53
2023-02-01T12:34:27.093Z,4.71
2023-02-01T12:35:27.086Z,4.56
2023-02-01T12:36:27.079Z,4.67
2023-02-01T12:37:27.149Z,4.56
2023-02-01T12:38:27.076Z,4.49
2023-02-01T12:39:27.042Z,4.64
2023-02-01T12:40:27.172Z,4.75
2023-02-01T12:41:27.069Z,4.79
2023-02-01T12:42:27.008Z,5.00
2023-02-01T12:43:27.002Z,4.97
2023-02-01T12:44:27.023Z,4.54
2023-02-01T12:45:27.011Z,4.75
2023-02-01T12:46:26.959Z,4.67
2023-02-01T12:47:26.969Z,4.67
2023-02-01T12:48:26.946Z,4.35
2023-02-01T12:49:26.939Z,4.41
2023-02-01T12:50:26.996Z,4.43
2023-02-01T12:51:26.930Z,4.59
2023-02-01T12:52:26.903Z,4.78
2023-02-01T12:53:26.915Z,4.61
2023-02-01T12:54:26.910Z,4.60
2023-02-01T12:55:26.878Z,4.60
2023-02-01T12:56:26.878Z,4.45
2023-02-01T12:57:26.838Z,4.48
2023-02-01T12:58:26.853Z,4.56
2023-02-01T12:59:26.827Z,4.49
2023-02-01T13:00:26.901Z,4.36
2023-02-01T13:01:26.862Z,4.23
2023-02-01T13:02:26.827Z,4.31
2023-02-01T13:03:26.817Z,4.24
2023-02-01T13:04:26.763Z,4.17
2023-02-01T13:05:26.793Z,4.30
2023-02-01T13:06:26.756Z,4.39
2023-02-01T13:07:26.778Z,4.16
2023-02-01T13:08:26.759Z,4.20
2023-02-01T13:09:26.729Z,4.21
2023-02-01T13:10:26.725Z,4.26
2023-02-01T13:11:26.691Z,4.45
2023-02-01T13:12:26.677Z,4.43
2023-02-01T13:13:26.675Z,4.49
2023-02-01T13:14:26.692Z,4.60
2023-02-01T13:15:26.659Z,4.71
2023-02-01T13:16:26.698Z,4.60
2023-02-01T13:17:26.643Z,4.41
2023-02-01T13:18:26.622Z,4.30
2023-02-01T13:19:26.642Z,4.18
2023-02-01T13:20:34.529Z,4.17
2023-02-01T13:21:26.580Z,4.20
2023-02-01T13:22:26.630Z,4.28
2023-02-01T13:23:26.582Z,4.39
2023-02-01T13:24:26.557Z,4.35
2023-02-01T13:25:26.893Z,4.31
2023-02-01T13:26:26.595Z,4.41
2023-02-01T13:27:26.540Z,4.28
2023-02-01T13:28:27.490Z,4.41
2023-02-01T13:29:26.504Z,4.30
2023-02-01T13:30:26.568Z,4.31
2023-02-01T13:31:26.613Z,4.30
2023-02-01T13:33:51.689Z,4.21
2023-02-01T13:33:54.878Z,4.24
2023-02-01T13:34:27.456Z,4.35
2023-02-01T13:35:26.439Z,4.39
2023-02-01T13:36:26.526Z,4.30
2023-02-01T13:37:26.436Z,4.13
2023-02-01T13:38:26.430Z,4.17
2023-02-01T13:39:26.416Z,4.06
2023-02-01T13:40:26.382Z,4.12
2023-02-01T13:41:26.405Z,4.08
2023-02-01T13:42:26.439Z,4.10
2023-02-01T13:43:26.374Z,4.00
2023-02-01T13:44:26.360Z,3.98
2023-02-01T13:45:26.902Z,3.92
2023-02-01T13:46:26.410Z,3.92
2023-02-01T13:47:26.336Z,3.87
2023-02-01T13:48:26.327Z,3.85
2023-02-01T13:49:26.314Z,3.85
2023-02-01T13:50:26.317Z,3.92
2023-02-01T13:51:26.309Z,3.91
2023-02-01T13:52:26.266Z,3.82
2023-02-01T13:53:26.255Z,3.82
2023-02-01T13:54:26.287Z,3.76
2023-02-01T13:55:26.630Z,3.80
2023-02-01T13:56:26.256Z,3.76
2023-02-01T13:57:26.213Z,3.80
2023-02-01T13:58:26.223Z,3.78
2023-02-01T13:59:26.200Z,3.81
2023-02-01T14:00:26.220Z,3.80
2023-02-01T14:01:26.196Z,3.69
2023-02-01T14:02:26.161Z,3.73
2023-02-01T14:03:26.152Z,3.76
2023-02-01T14:04:26.176Z,3.64
2023-02-01T14:05:26.559Z,3.66
2023-02-01T14:06:26.131Z,3.63
2023-02-01T14:07:26.165Z,3.62
2023-02-01T14:08:26.102Z,3.62
2023-02-01T14:09:26.078Z,3.59
2023-02-01T14:10:26.228Z,3.62
2023-02-01T14:11:26.059Z,3.64
2023-02-01T14:12:26.057Z,3.72
2023-02-01T14:13:26.111Z,3.72
2023-02-01T14:14:26.055Z,3.64
2023-02-01T14:15:26.639Z,3.64
2023-02-01T14:16:26.024Z,3.73
2023-02-01T14:17:30.567Z,3.78
2023-02-01T14:18:25.992Z,3.69
2023-02-01T14:19:26.003Z,3.73
2023-02-01T14:20:27.872Z,3.70
2023-02-01T14:21:26.005Z,3.69
2023-02-01T14:22:25.951Z,3.67
2023-02-01T14:23:25.939Z,3.63
2023-02-01T14:24:25.965Z,3.69
2023-02-01T14:25:26.295Z,3.63
2023-02-01T14:26:25.950Z,3.62
2023-02-01T14:27:25.905Z,3.63
2023-02-01T14:28:25.906Z,3.62
2023-02-01T14:29:25.922Z,3.55
2023-02-01T14:30:26.239Z,3.55
2023-02-01T14:31:25.937Z,3.52
2023-02-01T14:32:25.843Z,3.49